sensor_id;sensor_type;location;lat;lon;timestamp;P1;durP1;ratioP1;P2;durP2;ratioP2
21266;SDS011;10791;53.108;18.326;2022-07-17T00:02:24;3.23;;;1.13;;
21266;SDS011;10791;53.108;18.326;2022-07-17T00:07:39;5.17;;;1.57;;
21266;SDS011;10791;53.108;18.326;2022-07-17T00:12:54;11.40;;;2.10;;
21266;SDS011;10791;53.108;18.326;2022-07-17T00:18:06;6.17;;;1.67;;
21266;SDS011;10791;53.108;18.326;2022-07-17T00:28:49;7.07;;;1.93;;
21266;SDS011;10791;53.108;18.326;2022-07-17T00:33:59;5.20;;;1.87;;
21266;SDS011;10791;53.108;18.326;2022-07-17T00:39:09;5.70;;;1.93;;
21266;SDS011;10791;53.108;18.326;2022-07-17T00:44:44;7.30;;;2.03;;
21266;SDS011;10791;53.108;18.326;2022-07-17T00:50:18;8.60;;;2.30;;
21266;SDS011;10791;53.108;18.326;2022-07-17T01:02:10;5.90;;;1.70;;
21266;SDS011;10791;53.108;18.326;2022-07-17T01:07:30;6.47;;;2.10;;
21266;SDS011;10791;53.108;18.326;2022-07-17T01:20:40;5.73;;;2.00;;
21266;SDS011;10791;53.108;18.326;2022-07-17T01:25:54;6.97;;;1.90;;
21266;SDS011;10791;53.108;18.326;2022-07-17T01:31:01;6.90;;;1.90;;
21266;SDS011;10791;53.108;18.326;2022-07-17T01:36:07;10.50;;;2.33;;
21266;SDS011;10791;53.108;18.326;2022-07-17T01:41:11;13.40;;;2.10;;
21266;SDS011;10791;53.108;18.326;2022-07-17T01:46:59;7.57;;;1.97;;
21266;SDS011;10791;53.108;18.326;2022-07-17T01:52:04;14.33;;;2.03;;
21266;SDS011;10791;53.108;18.326;2022-07-17T01:57:08;7.33;;;1.90;;
21266;SDS011;10791;53.108;18.326;2022-07-17T02:02:13;7.47;;;2.23;;
21266;SDS011;10791;53.108;18.326;2022-07-17T02:07:42;7.30;;;2.13;;
21266;SDS011;10791;53.108;18.326;2022-07-17T02:12:46;8.90;;;2.40;;
21266;SDS011;10791;53.108;18.326;2022-07-17T02:17:50;9.37;;;2.70;;
21266;SDS011;10791;53.108;18.326;2022-07-17T02:23:02;16.33;;;2.60;;
21266;SDS011;10791;53.108;18.326;2022-07-17T02:28:13;11.07;;;2.17;;
21266;SDS011;10791;53.108;18.326;2022-07-17T02:33:17;9.80;;;2.00;;
21266;SDS011;10791;53.108;18.326;2022-07-17T02:38:29;9.37;;;2.30;;
21266;SDS011;10791;53.108;18.326;2022-07-17T02:43:33;6.27;;;2.30;;
21266;SDS011;10791;53.108;18.326;2022-07-17T02:48:37;8.13;;;2.40;;
21266;SDS011;10791;53.108;18.326;2022-07-17T02:53:40;9.13;;;2.77;;
21266;SDS011;10791;53.108;18.326;2022-07-17T02:58:44;6.67;;;2.67;;
21266;SDS011;10791;53.108;18.326;2022-07-17T03:03:47;7.07;;;2.13;;
21266;SDS011;10791;53.108;18.326;2022-07-17T03:08:50;6.73;;;2.40;;
21266;SDS011;10791;53.108;18.326;2022-07-17T03:13:57;9.53;;;3.00;;
21266;SDS011;10791;53.108;18.326;2022-07-17T03:19:02;10.50;;;2.40;;
21266;SDS011;10791;53.108;18.326;2022-07-17T03:24:10;9.97;;;2.70;;
21266;SDS011;10791;53.108;18.326;2022-07-17T03:29:17;9.03;;;2.67;;
21266;SDS011;10791;53.108;18.326;2022-07-17T03:34:24;9.93;;;2.70;;
21266;SDS011;10791;53.108;18.326;2022-07-17T03:39:36;6.93;;;3.20;;
21266;SDS011;10791;53.108;18.326;2022-07-17T03:44:50;5.87;;;2.57;;
21266;SDS011;10791;53.108;18.326;2022-07-17T03:49:57;10.20;;;2.63;;
21266;SDS011;10791;53.108;18.326;2022-07-17T03:55:04;12.77;;;3.27;;
21266;SDS011;10791;53.108;18.326;2022-07-17T04:00:10;9.77;;;2.47;;
21266;SDS011;10791;53.108;18.326;2022-07-17T04:05:15;6.37;;;2.63;;
21266;SDS011;10791;53.108;18.326;2022-07-17T04:10:24;7.33;;;2.10;;
21266;SDS011;10791;53.108;18.326;2022-07-17T04:15:40;16.27;;;3.07;;
21266;SDS011;10791;53.108;18.326;2022-07-17T04:21:05;10.63;;;2.17;;
21266;SDS011;10791;53.108;18.326;2022-07-17T04:26:13;7.20;;;1.87;;
21266;SDS011;10791;53.108;18.326;2022-07-17T04:31:20;10.97;;;2.40;;
21266;SDS011;10791;53.108;18.326;2022-07-17T04:36:30;10.03;;;2.10;;
21266;SDS011;10791;53.108;18.326;2022-07-17T04:41:37;9.13;;;2.43;;
21266;SDS011;10791;53.108;18.326;2022-07-17T04:47:16;7.97;;;1.60;;
21266;SDS011;10791;53.108;18.326;2022-07-17T04:52:26;6.43;;;1.73;;
21266;SDS011;10791;53.108;18.326;2022-07-17T05:04:31;6.32;;;1.50;;
21266;SDS011;10791;53.108;18.326;2022-07-17T05:09:57;9.77;;;2.13;;
21266;SDS011;10791;53.108;18.326;2022-07-17T05:15:21;10.55;;;1.92;;
21266;SDS011;10791;53.108;18.326;2022-07-17T05:20:27;10.63;;;1.70;;
21266;SDS011;10791;53.108;18.326;2022-07-17T05:25:51;8.38;;;1.55;;
21266;SDS011;10791;53.108;18.326;2022-07-17T05:30:58;7.88;;;2.10;;
21266;SDS011;10791;53.108;18.326;2022-07-17T05:36:04;5.45;;;1.50;;
21266;SDS011;10791;53.108;18.326;2022-07-17T05:41:15;9.85;;;2.05;;
21266;SDS011;10791;53.108;18.326;2022-07-17T05:51:55;7.53;;;1.60;;
21266;SDS011;10791;53.108;18.326;2022-07-17T05:57:02;12.57;;;2.17;;
21266;SDS011;10791;53.108;18.326;2022-07-17T06:02:31;3.50;;;1.30;;
21266;SDS011;10791;53.108;18.326;2022-07-17T06:07:48;6.70;;;1.43;;
21266;SDS011;10791;53.108;18.326;2022-07-17T06:13:14;5.50;;;1.17;;
21266;SDS011;10791;53.108;18.326;2022-07-17T06:18:20;6.63;;;2.03;;
21266;SDS011;10791;53.108;18.326;2022-07-17T06:23:32;4.43;;;1.13;;
21266;SDS011;10791;53.108;18.326;2022-07-17T06:28:36;7.25;;;1.35;;
21266;SDS011;10791;53.108;18.326;2022-07-17T06:33:49;11.18;;;1.75;;
21266;SDS011;10791;53.108;18.326;2022-07-17T06:38:55;6.38;;;1.30;;
21266;SDS011;10791;53.108;18.326;2022-07-17T06:43:59;6.00;;;2.20;;
21266;SDS011;10791;53.108;18.326;2022-07-17T06:49:05;2.90;;;0.70;;
21266;SDS011;10791;53.108;18.326;2022-07-17T06:54:18;6.60;;;1.10;;
21266;SDS011;10791;53.108;18.326;2022-07-17T06:59:22;3.92;;;1.10;;
21266;SDS011;10791;53.108;18.326;2022-07-17T07:04:38;7.97;;;1.73;;
21266;SDS011;10791;53.108;18.326;2022-07-17T07:09:42;6.50;;;1.10;;
21266;SDS011;10791;53.108;18.326;2022-07-17T07:14:47;5.97;;;1.00;;
21266;SDS011;10791;53.108;18.326;2022-07-17T07:19:50;4.38;;;0.95;;
21266;SDS011;10791;53.108;18.326;2022-07-17T07:25:00;9.57;;;1.60;;
21266;SDS011;10791;53.108;18.326;2022-07-17T07:30:06;3.45;;;1.00;;
21266;SDS011;10791;53.108;18.326;2022-07-17T07:35:13;5.18;;;1.17;;
21266;SDS011;10791;53.108;18.326;2022-07-17T07:40:18;4.93;;;1.10;;
21266;SDS011;10791;53.108;18.326;2022-07-17T07:45:30;7.80;;;1.42;;
21266;SDS011;10791;53.108;18.326;2022-07-17T07:50:34;4.65;;;0.98;;
21266;SDS011;10791;53.108;18.326;2022-07-17T07:55:37;6.47;;;0.93;;
21266;SDS011;10791;53.108;18.326;2022-07-17T08:01:05;2.80;;;0.80;;
21266;SDS011;10791;53.108;18.326;2022-07-17T08:06:09;2.83;;;0.73;;
21266;SDS011;10791;53.108;18.326;2022-07-17T08:11:12;3.53;;;1.50;;
21266;SDS011;10791;53.108;18.326;2022-07-17T08:16:24;4.40;;;0.60;;
21266;SDS011;10791;53.108;18.326;2022-07-17T08:21:31;5.03;;;0.80;;
21266;SDS011;10791;53.108;18.326;2022-07-17T08:26:35;3.38;;;0.73;;
21266;SDS011;10791;53.108;18.326;2022-07-17T08:31:38;6.13;;;1.38;;
21266;SDS011;10791;53.108;18.326;2022-07-17T08:36:44;4.18;;;0.80;;
21266;SDS011;10791;53.108;18.326;2022-07-17T08:41:49;6.30;;;0.80;;
21266;SDS011;10791;53.108;18.326;2022-07-17T08:46:55;6.47;;;1.60;;
21266;SDS011;10791;53.108;18.326;2022-07-17T08:52:09;3.53;;;0.82;;
21266;SDS011;10791;53.108;18.326;2022-07-17T08:57:13;6.70;;;1.05;;
21266;SDS011;10791;53.108;18.326;2022-07-17T09:02:16;4.47;;;0.70;;
21266;SDS011;10791;53.108;18.326;2022-07-17T09:07:21;3.35;;;0.60;;
21266;SDS011;10791;53.108;18.326;2022-07-17T09:12:30;3.55;;;0.70;;
21266;SDS011;10791;53.108;18.326;2022-07-17T09:17:35;2.60;;;1.00;;
21266;SDS011;10791;53.108;18.326;2022-07-17T09:22:41;4.38;;;1.25;;
21266;SDS011;10791;53.108;18.326;2022-07-17T09:27:45;3.10;;;0.98;;
21266;SDS011;10791;53.108;18.326;2022-07-17T09:32:54;3.92;;;0.60;;
21266;SDS011;10791;53.108;18.326;2022-07-17T09:37:58;2.13;;;0.55;;
21266;SDS011;10791;53.108;18.326;2022-07-17T09:43:06;4.50;;;1.27;;
21266;SDS011;10791;53.108;18.326;2022-07-17T09:48:19;3.42;;;0.70;;
21266;SDS011;10791;53.108;18.326;2022-07-17T09:53:24;3.25;;;0.70;;
21266;SDS011;10791;53.108;18.326;2022-07-17T09:58:29;8.93;;;1.15;;
21266;SDS011;10791;53.108;18.326;2022-07-17T10:03:36;4.53;;;1.00;;
21266;SDS011;10791;53.108;18.326;2022-07-17T10:08:40;3.95;;;1.13;;
21266;SDS011;10791;53.108;18.326;2022-07-17T10:13:46;3.20;;;0.50;;
21266;SDS011;10791;53.108;18.326;2022-07-17T10:18:51;3.55;;;1.10;;
21266;SDS011;10791;53.108;18.326;2022-07-17T10:29:08;5.10;;;1.17;;
21266;SDS011;10791;53.108;18.326;2022-07-17T10:34:37;6.32;;;0.85;;
21266;SDS011;10791;53.108;18.326;2022-07-17T10:39:53;5.07;;;1.13;;
21266;SDS011;10791;53.108;18.326;2022-07-17T10:45:17;3.80;;;0.85;;
21266;SDS011;10791;53.108;18.326;2022-07-17T10:50:47;5.10;;;0.93;;
21266;SDS011;10791;53.108;18.326;2022-07-17T10:55:54;4.88;;;0.70;;
21266;SDS011;10791;53.108;18.326;2022-07-17T11:01:02;6.72;;;1.52;;
21266;SDS011;10791;53.108;18.326;2022-07-17T11:11:47;4.75;;;0.82;;
21266;SDS011;10791;53.108;18.326;2022-07-17T11:16:55;4.13;;;0.70;;
21266;SDS011;10791;53.108;18.326;2022-07-17T11:22:05;3.17;;;0.65;;
21266;SDS011;10791;53.108;18.326;2022-07-17T11:27:11;4.63;;;0.85;;
21266;SDS011;10791;53.108;18.326;2022-07-17T11:32:38;2.25;;;0.70;;
21266;SDS011;10791;53.108;18.326;2022-07-17T11:37:42;8.05;;;1.23;;
21266;SDS011;10791;53.108;18.326;2022-07-17T11:42:46;2.03;;;0.70;;
21266;SDS011;10791;53.108;18.326;2022-07-17T11:47:52;3.90;;;1.00;;
21266;SDS011;10791;53.108;18.326;2022-07-17T11:53:03;3.72;;;0.93;;
21266;SDS011;10791;53.108;18.326;2022-07-17T11:58:07;3.53;;;0.88;;
21266;SDS011;10791;53.108;18.326;2022-07-17T12:03:11;2.72;;;1.23;;
21266;SDS011;10791;53.108;18.326;2022-07-17T12:08:19;3.45;;;0.80;;
21266;SDS011;10791;53.108;18.326;2022-07-17T12:13:22;5.82;;;0.73;;
21266;SDS011;10791;53.108;18.326;2022-07-17T12:18:28;5.40;;;0.60;;
21266;SDS011;10791;53.108;18.326;2022-07-17T12:23:33;6.30;;;0.90;;
21266;SDS011;10791;53.108;18.326;2022-07-17T12:28:46;5.15;;;0.88;;
21266;SDS011;10791;53.108;18.326;2022-07-17T12:33:52;2.70;;;0.73;;
21266;SDS011;10791;53.108;18.326;2022-07-17T12:38:57;3.75;;;1.00;;
21266;SDS011;10791;53.108;18.326;2022-07-17T12:44:00;3.85;;;0.90;;
21266;SDS011;10791;53.108;18.326;2022-07-17T12:49:06;1.88;;;0.60;;
21266;SDS011;10791;53.108;18.326;2022-07-17T12:54:12;4.93;;;0.95;;
21266;SDS011;10791;53.108;18.326;2022-07-17T12:59:16;2.53;;;0.80;;
21266;SDS011;10791;53.108;18.326;2022-07-17T13:04:22;3.10;;;0.85;;
21266;SDS011;10791;53.108;18.326;2022-07-17T13:09:28;3.80;;;0.70;;
21266;SDS011;10791;53.108;18.326;2022-07-17T13:14:31;2.85;;;1.10;;
21266;SDS011;10791;53.108;18.326;2022-07-17T13:19:40;2.58;;;0.88;;
21266;SDS011;10791;53.108;18.326;2022-07-17T13:24:44;3.67;;;0.70;;
21266;SDS011;10791;53.108;18.326;2022-07-17T13:29:48;3.03;;;1.00;;
21266;SDS011;10791;53.108;18.326;2022-07-17T13:34:55;2.42;;;1.10;;
21266;SDS011;10791;53.108;18.326;2022-07-17T13:39:58;3.92;;;0.98;;
21266;SDS011;10791;53.108;18.326;2022-07-17T13:45:13;4.38;;;1.17;;
21266;SDS011;10791;53.108;18.326;2022-07-17T13:50:16;3.35;;;0.80;;
21266;SDS011;10791;53.108;18.326;2022-07-17T13:55:20;3.10;;;0.85;;
21266;SDS011;10791;53.108;18.326;2022-07-17T14:00:43;3.83;;;1.10;;
21266;SDS011;10791;53.108;18.326;2022-07-17T14:05:47;2.97;;;1.02;;
21266;SDS011;10791;53.108;18.326;2022-07-17T14:10:50;2.55;;;1.23;;
21266;SDS011;10791;53.108;18.326;2022-07-17T14:16:02;8.05;;;1.50;;
21266;SDS011;10791;53.108;18.326;2022-07-17T14:21:08;4.00;;;1.30;;
21266;SDS011;10791;53.108;18.326;2022-07-17T14:26:16;5.47;;;0.90;;
21266;SDS011;10791;53.108;18.326;2022-07-17T14:31:20;2.95;;;0.93;;
21266;SDS011;10791;53.108;18.326;2022-07-17T14:36:27;5.13;;;0.93;;
21266;SDS011;10791;53.108;18.326;2022-07-17T14:41:42;4.18;;;1.05;;
21266;SDS011;10791;53.108;18.326;2022-07-17T14:46:47;4.13;;;1.00;;
21266;SDS011;10791;53.108;18.326;2022-07-17T14:51:53;3.28;;;1.23;;
21266;SDS011;10791;53.108;18.326;2022-07-17T14:57:00;4.07;;;1.20;;
21266;SDS011;10791;53.108;18.326;2022-07-17T15:02:10;2.78;;;1.10;;
21266;SDS011;10791;53.108;18.326;2022-07-17T15:12:43;2.35;;;0.88;;
21266;SDS011;10791;53.108;18.326;2022-07-17T15:17:47;4.00;;;0.93;;
21266;SDS011;10791;53.108;18.326;2022-07-17T15:22:51;2.55;;;0.80;;
21266;SDS011;10791;53.108;18.326;2022-07-17T15:27:57;3.00;;;0.80;;
21266;SDS011;10791;53.108;18.326;2022-07-17T15:33:01;4.50;;;1.00;;
21266;SDS011;10791;53.108;18.326;2022-07-17T15:38:07;2.03;;;0.90;;
21266;SDS011;10791;53.108;18.326;2022-07-17T15:43:13;4.00;;;0.90;;
21266;SDS011;10791;53.108;18.326;2022-07-17T15:48:16;2.83;;;1.15;;
21266;SDS011;10791;53.108;18.326;2022-07-17T15:53:20;2.08;;;1.10;;
21266;SDS011;10791;53.108;18.326;2022-07-17T15:58:23;4.22;;;1.45;;
21266;SDS011;10791;53.108;18.326;2022-07-17T16:03:26;3.28;;;1.83;;
21266;SDS011;10791;53.108;18.326;2022-07-17T16:08:43;4.63;;;1.90;;
21266;SDS011;10791;53.108;18.326;2022-07-17T16:13:49;5.80;;;2.20;;
21266;SDS011;10791;53.108;18.326;2022-07-17T16:18:56;2.85;;;1.90;;
21266;SDS011;10791;53.108;18.326;2022-07-17T16:24:00;3.80;;;1.80;;
21266;SDS011;10791;53.108;18.326;2022-07-17T16:29:04;4.20;;;2.00;;
21266;SDS011;10791;53.108;18.326;2022-07-17T16:34:13;3.97;;;2.00;;
21266;SDS011;10791;53.108;18.326;2022-07-17T16:39:16;3.35;;;2.30;;
21266;SDS011;10791;53.108;18.326;2022-07-17T16:44:22;1.40;;;1.20;;
21266;SDS011;10791;53.108;18.326;2022-07-17T16:49:28;5.72;;;1.00;;
21266;SDS011;10791;53.108;18.326;2022-07-17T16:54:35;3.35;;;1.05;;
21266;SDS011;10791;53.108;18.326;2022-07-17T16:59:42;5.57;;;1.20;;
21266;SDS011;10791;53.108;18.326;2022-07-17T17:04:45;1.98;;;0.73;;
21266;SDS011;10791;53.108;18.326;2022-07-17T17:09:53;2.53;;;0.68;;
21266;SDS011;10791;53.108;18.326;2022-07-17T17:14:58;3.08;;;0.70;;
21266;SDS011;10791;53.108;18.326;2022-07-17T17:20:14;3.58;;;0.80;;
21266;SDS011;10791;53.108;18.326;2022-07-17T17:25:23;3.45;;;0.80;;
21266;SDS011;10791;53.108;18.326;2022-07-17T17:30:27;1.70;;;0.60;;
21266;SDS011;10791;53.108;18.326;2022-07-17T17:35:33;4.55;;;0.80;;
21266;SDS011;10791;53.108;18.326;2022-07-17T17:40:36;2.85;;;0.93;;
21266;SDS011;10791;53.108;18.326;2022-07-17T17:45:41;2.45;;;0.73;;
21266;SDS011;10791;53.108;18.326;2022-07-17T17:50:44;2.78;;;0.68;;
21266;SDS011;10791;53.108;18.326;2022-07-17T17:56:05;2.85;;;0.70;;
21266;SDS011;10791;53.108;18.326;2022-07-17T18:01:11;3.30;;;0.77;;
21266;SDS011;10791;53.108;18.326;2022-07-17T18:06:14;2.55;;;0.75;;
21266;SDS011;10791;53.108;18.326;2022-07-17T18:11:22;2.38;;;0.80;;
21266;SDS011;10791;53.108;18.326;2022-07-17T18:16:26;4.63;;;1.00;;
21266;SDS011;10791;53.108;18.326;2022-07-17T18:21:30;3.55;;;1.00;;
21266;SDS011;10791;53.108;18.326;2022-07-17T18:26:34;1.70;;;0.77;;
21266;SDS011;10791;53.108;18.326;2022-07-17T18:31:38;1.70;;;0.90;;
21266;SDS011;10791;53.108;18.326;2022-07-17T18:36:41;4.35;;;0.90;;
21266;SDS011;10791;53.108;18.326;2022-07-17T18:41:45;3.28;;;1.17;;
21266;SDS011;10791;53.108;18.326;2022-07-17T18:46:48;3.25;;;1.10;;
21266;SDS011;10791;53.108;18.326;2022-07-17T18:51:52;8.10;;;0.98;;
21266;SDS011;10791;53.108;18.326;2022-07-17T18:56:56;2.20;;;1.00;;
21266;SDS011;10791;53.108;18.326;2022-07-17T19:02:00;3.90;;;1.02;;
21266;SDS011;10791;53.108;18.326;2022-07-17T19:07:03;3.80;;;0.95;;
21266;SDS011;10791;53.108;18.326;2022-07-17T19:12:08;2.38;;;1.05;;
21266;SDS011;10791;53.108;18.326;2022-07-17T19:17:14;3.63;;;1.30;;
21266;SDS011;10791;53.108;18.326;2022-07-17T19:22:18;2.90;;;1.27;;
21266;SDS011;10791;53.108;18.326;2022-07-17T19:27:22;5.63;;;1.27;;
21266;SDS011;10791;53.108;18.326;2022-07-17T19:32:26;3.42;;;1.80;;
21266;SDS011;10791;53.108;18.326;2022-07-17T19:37:30;2.70;;;1.13;;
21266;SDS011;10791;53.108;18.326;2022-07-17T19:42:34;3.60;;;1.20;;
21266;SDS011;10791;53.108;18.326;2022-07-17T19:47:38;3.05;;;1.30;;
21266;SDS011;10791;53.108;18.326;2022-07-17T19:52:42;3.85;;;1.08;;
21266;SDS011;10791;53.108;18.326;2022-07-17T19:57:46;2.57;;;1.20;;
21266;SDS011;10791;53.108;18.326;2022-07-17T20:02:50;5.15;;;1.35;;
21266;SDS011;10791;53.108;18.326;2022-07-17T20:07:57;3.77;;;1.60;;
21266;SDS011;10791;53.108;18.326;2022-07-17T20:13:01;2.57;;;1.23;;
21266;SDS011;10791;53.108;18.326;2022-07-17T20:18:06;2.57;;;1.47;;
21266;SDS011;10791;53.108;18.326;2022-07-17T20:23:09;5.73;;;2.03;;
21266;SDS011;10791;53.108;18.326;2022-07-17T20:28:16;4.27;;;1.90;;
21266;SDS011;10791;53.108;18.326;2022-07-17T20:33:21;8.27;;;2.00;;
21266;SDS011;10791;53.108;18.326;2022-07-17T20:38:26;4.27;;;2.20;;
21266;SDS011;10791;53.108;18.326;2022-07-17T20:43:29;3.57;;;2.17;;
21266;SDS011;10791;53.108;18.326;2022-07-17T20:48:33;8.03;;;2.10;;
21266;SDS011;10791;53.108;18.326;2022-07-17T20:53:38;8.13;;;3.00;;
21266;SDS011;10791;53.108;18.326;2022-07-17T20:58:42;5.87;;;2.00;;
21266;SDS011;10791;53.108;18.326;2022-07-17T21:03:46;3.70;;;2.00;;
21266;SDS011;10791;53.108;18.326;2022-07-17T21:08:49;5.73;;;2.50;;
21266;SDS011;10791;53.108;18.326;2022-07-17T21:13:53;8.30;;;2.77;;
21266;SDS011;10791;53.108;18.326;2022-07-17T21:18:57;5.93;;;2.50;;
21266;SDS011;10791;53.108;18.326;2022-07-17T21:24:00;6.37;;;2.97;;
21266;SDS011;10791;53.108;18.326;2022-07-17T21:29:04;10.87;;;4.30;;
21266;SDS011;10791;53.108;18.326;2022-07-17T21:34:07;11.00;;;5.30;;
21266;SDS011;10791;53.108;18.326;2022-07-17T21:39:11;9.10;;;5.23;;
21266;SDS011;10791;53.108;18.326;2022-07-17T21:44:14;9.60;;;4.93;;
21266;SDS011;10791;53.108;18.326;2022-07-17T21:49:18;10.73;;;4.23;;
21266;SDS011;10791;53.108;18.326;2022-07-17T21:54:22;7.23;;;3.77;;
21266;SDS011;10791;53.108;18.326;2022-07-17T21:59:25;7.03;;;4.27;;
21266;SDS011;10791;53.108;18.326;2022-07-17T22:04:29;9.13;;;4.00;;
21266;SDS011;10791;53.108;18.326;2022-07-17T22:09:33;7.60;;;4.13;;
21266;SDS011;10791;53.108;18.326;2022-07-17T22:14:37;5.73;;;3.90;;
21266;SDS011;10791;53.108;18.326;2022-07-17T22:19:41;8.33;;;4.27;;
21266;SDS011;10791;53.108;18.326;2022-07-17T22:24:46;6.60;;;3.50;;
21266;SDS011;10791;53.108;18.326;2022-07-17T22:29:50;10.00;;;4.23;;
21266;SDS011;10791;53.108;18.326;2022-07-17T22:34:55;7.70;;;4.23;;
21266;SDS011;10791;53.108;18.326;2022-07-17T22:39:58;7.53;;;3.90;;
21266;SDS011;10791;53.108;18.326;2022-07-17T22:45:02;8.87;;;4.50;;
21266;SDS011;10791;53.108;18.326;2022-07-17T22:50:07;9.70;;;4.50;;
21266;SDS011;10791;53.108;18.326;2022-07-17T22:55:11;10.63;;;4.37;;
21266;SDS011;10791;53.108;18.326;2022-07-17T23:00:15;10.27;;;4.07;;
21266;SDS011;10791;53.108;18.326;2022-07-17T23:05:19;7.83;;;3.97;;
21266;SDS011;10791;53.108;18.326;2022-07-17T23:10:23;9.10;;;4.53;;
21266;SDS011;10791;53.108;18.326;2022-07-17T23:15:28;5.93;;;3.83;;
21266;SDS011;10791;53.108;18.326;2022-07-17T23:20:32;7.10;;;3.80;;
21266;SDS011;10791;53.108;18.326;2022-07-17T23:25:35;9.37;;;3.97;;
21266;SDS011;10791;53.108;18.326;2022-07-17T23:30:39;6.37;;;4.07;;
21266;SDS011;10791;53.108;18.326;2022-07-17T23:35:50;7.47;;;4.47;;
21266;SDS011;10791;53.108;18.326;2022-07-17T23:40:54;9.30;;;5.17;;
21266;SDS011;10791;53.108;18.326;2022-07-17T23:45:58;8.67;;;4.60;;
21266;SDS011;10791;53.108;18.326;2022-07-17T23:51:01;10.97;;;5.03;;
21266;SDS011;10791;53.108;18.326;2022-07-17T23:56:05;9.07;;;4.70;;
